sensor_id;sensor_type;location;lat;lon;timestamp;temperature;humidity
52669;DHT22;59898;52.786;6.892;2022-09-02T00:01:47;15.70;91.30
52669;DHT22;59898;52.786;6.892;2022-09-02T00:05:07;15.60;91.40
52669;DHT22;59898;52.786;6.892;2022-09-02T00:08:29;15.60;91.50
52669;DHT22;59898;52.786;6.892;2022-09-02T00:11:53;15.60;91.50
52669;DHT22;59898;52.786;6.892;2022-09-02T00:15:14;15.60;91.70
52669;DHT22;59898;52.786;6.892;2022-09-02T00:18:35;15.60;92.20
52669;DHT22;59898;52.786;6.892;2022-09-02T00:21:56;15.60;91.80
52669;DHT22;59898;52.786;6.892;2022-09-02T00:25:17;15.60;91.80
52669;DHT22;59898;52.786;6.892;2022-09-02T00:28:39;15.60;91.90
52669;DHT22;59898;52.786;6.892;2022-09-02T00:32:00;15.60;91.90
52669;DHT22;59898;52.786;6.892;2022-09-02T00:35:21;15.60;92.10
52669;DHT22;59898;52.786;6.892;2022-09-02T00:38:41;15.60;92.10
52669;DHT22;59898;52.786;6.892;2022-09-02T00:42:03;15.60;92.20
52669;DHT22;59898;52.786;6.892;2022-09-02T00:45:24;15.50;92.30
52669;DHT22;59898;52.786;6.892;2022-09-02T00:52:32;15.50;92.70
52669;DHT22;59898;52.786;6.892;2022-09-02T00:55:54;15.40;92.50
52669;DHT22;59898;52.786;6.892;2022-09-02T00:59:21;15.40;92.60
52669;DHT22;59898;52.786;6.892;2022-09-02T01:02:48;15.40;92.70
52669;DHT22;59898;52.786;6.892;2022-09-02T01:06:11;15.30;92.90
52669;DHT22;59898;52.786;6.892;2022-09-02T01:09:34;15.30;92.90
52669;DHT22;59898;52.786;6.892;2022-09-02T01:12:57;15.30;93.10
52669;DHT22;59898;52.786;6.892;2022-09-02T01:16:23;15.20;93.20
52669;DHT22;59898;52.786;6.892;2022-09-02T01:19:49;15.20;93.30
52669;DHT22;59898;52.786;6.892;2022-09-02T01:23:10;15.20;93.40
52669;DHT22;59898;52.786;6.892;2022-09-02T01:26:31;15.20;93.50
52669;DHT22;59898;52.786;6.892;2022-09-02T01:29:55;15.10;93.50
52669;DHT22;59898;52.786;6.892;2022-09-02T01:33:18;15.10;93.70
52669;DHT22;59898;52.786;6.892;2022-09-02T01:36:41;15.10;93.80
52669;DHT22;59898;52.786;6.892;2022-09-02T01:40:02;15.10;93.80
52669;DHT22;59898;52.786;6.892;2022-09-02T01:43:26;15.00;94.00
52669;DHT22;59898;52.786;6.892;2022-09-02T01:46:47;15.00;94.20
52669;DHT22;59898;52.786;6.892;2022-09-02T01:50:08;15.00;94.10
52669;DHT22;59898;52.786;6.892;2022-09-02T01:53:30;15.10;94.30
52669;DHT22;59898;52.786;6.892;2022-09-02T01:56:51;15.20;94.40
52669;DHT22;59898;52.786;6.892;2022-09-02T02:00:12;15.30;94.50
52669;DHT22;59898;52.786;6.892;2022-09-02T02:03:34;15.30;94.20
52669;DHT22;59898;52.786;6.892;2022-09-02T02:06:55;15.40;94.20
52669;DHT22;59898;52.786;6.892;2022-09-02T02:10:18;15.40;94.20
52669;DHT22;59898;52.786;6.892;2022-09-02T02:13:39;15.40;94.30
52669;DHT22;59898;52.786;6.892;2022-09-02T02:16:59;15.40;94.40
52669;DHT22;59898;52.786;6.892;2022-09-02T02:20:20;15.30;94.30
52669;DHT22;59898;52.786;6.892;2022-09-02T02:23:41;15.30;94.40
52669;DHT22;59898;52.786;6.892;2022-09-02T02:27:02;15.30;94.50
52669;DHT22;59898;52.786;6.892;2022-09-02T02:30:24;15.30;94.50
52669;DHT22;59898;52.786;6.892;2022-09-02T02:33:45;15.20;94.60
52669;DHT22;59898;52.786;6.892;2022-09-02T02:37:06;15.20;94.70
52669;DHT22;59898;52.786;6.892;2022-09-02T02:40:27;15.20;94.80
52669;DHT22;59898;52.786;6.892;2022-09-02T02:43:48;15.10;94.90
52669;DHT22;59898;52.786;6.892;2022-09-02T02:47:09;15.00;95.00
52669;DHT22;59898;52.786;6.892;2022-09-02T02:50:29;14.80;95.30
52669;DHT22;59898;52.786;6.892;2022-09-02T02:53:50;14.70;95.60
52669;DHT22;59898;52.786;6.892;2022-09-02T02:57:11;14.60;95.70
52669;DHT22;59898;52.786;6.892;2022-09-02T03:00:32;14.60;95.80
52669;DHT22;59898;52.786;6.892;2022-09-02T03:03:53;14.50;96.10
52669;DHT22;59898;52.786;6.892;2022-09-02T03:07:14;14.50;96.10
52669;DHT22;59898;52.786;6.892;2022-09-02T03:10:35;14.40;96.30
52669;DHT22;59898;52.786;6.892;2022-09-02T03:13:57;14.40;96.50
52669;DHT22;59898;52.786;6.892;2022-09-02T03:17:18;14.40;96.70
52669;DHT22;59898;52.786;6.892;2022-09-02T03:20:40;14.30;96.70
52669;DHT22;59898;52.786;6.892;2022-09-02T03:24:01;14.30;96.90
52669;DHT22;59898;52.786;6.892;2022-09-02T03:27:22;14.30;97.10
52669;DHT22;59898;52.786;6.892;2022-09-02T03:30:45;14.20;97.30
52669;DHT22;59898;52.786;6.892;2022-09-02T03:34:05;14.20;97.40
52669;DHT22;59898;52.786;6.892;2022-09-02T03:37:27;14.20;97.60
52669;DHT22;59898;52.786;6.892;2022-09-02T03:40:48;14.10;97.70
52669;DHT22;59898;52.786;6.892;2022-09-02T03:44:09;14.10;97.70
52669;DHT22;59898;52.786;6.892;2022-09-02T03:47:30;14.10;97.90
52669;DHT22;59898;52.786;6.892;2022-09-02T03:50:50;14.00;98.00
52669;DHT22;59898;52.786;6.892;2022-09-02T03:54:11;14.00;98.10
52669;DHT22;59898;52.786;6.892;2022-09-02T03:57:34;13.90;98.30
52669;DHT22;59898;52.786;6.892;2022-09-02T04:00:55;13.90;98.40
52669;DHT22;59898;52.786;6.892;2022-09-02T04:04:18;13.90;98.60
52669;DHT22;59898;52.786;6.892;2022-09-02T04:07:39;13.80;98.70
52669;DHT22;59898;52.786;6.892;2022-09-02T04:11:07;13.80;98.80
52669;DHT22;59898;52.786;6.892;2022-09-02T04:14:28;13.80;98.80
52669;DHT22;59898;52.786;6.892;2022-09-02T04:17:49;13.80;98.90
52669;DHT22;59898;52.786;6.892;2022-09-02T04:21:10;13.80;99.00
52669;DHT22;59898;52.786;6.892;2022-09-02T04:24:31;13.70;99.30
52669;DHT22;59898;52.786;6.892;2022-09-02T04:27:51;13.70;99.20
52669;DHT22;59898;52.786;6.892;2022-09-02T04:31:14;13.70;99.40
52669;DHT22;59898;52.786;6.892;2022-09-02T04:34:36;13.70;99.60
52669;DHT22;59898;52.786;6.892;2022-09-02T04:37:56;13.70;99.50
52669;DHT22;59898;52.786;6.892;2022-09-02T04:41:21;13.70;99.70
52669;DHT22;59898;52.786;6.892;2022-09-02T04:44:42;13.60;99.70
52669;DHT22;59898;52.786;6.892;2022-09-02T04:48:03;13.60;99.80
52669;DHT22;59898;52.786;6.892;2022-09-02T04:51:25;13.60;99.80
52669;DHT22;59898;52.786;6.892;2022-09-02T04:54:46;13.60;99.80
52669;DHT22;59898;52.786;6.892;2022-09-02T04:58:09;13.60;99.90
52669;DHT22;59898;52.786;6.892;2022-09-02T05:01:33;13.60;99.90
52669;DHT22;59898;52.786;6.892;2022-09-02T05:04:54;13.60;99.90
52669;DHT22;59898;52.786;6.892;2022-09-02T05:08:15;13.60;99.90
52669;DHT22;59898;52.786;6.892;2022-09-02T05:11:41;13.60;99.90
52669;DHT22;59898;52.786;6.892;2022-09-02T05:15:03;13.70;99.90
52669;DHT22;59898;52.786;6.892;2022-09-02T05:18:23;13.60;99.90
52669;DHT22;59898;52.786;6.892;2022-09-02T05:21:44;13.70;99.90
52669;DHT22;59898;52.786;6.892;2022-09-02T05:25:06;13.60;99.90
52669;DHT22;59898;52.786;6.892;2022-09-02T05:28:28;13.70;99.90
52669;DHT22;59898;52.786;6.892;2022-09-02T05:31:49;13.80;99.90
52669;DHT22;59898;52.786;6.892;2022-09-02T05:35:10;13.80;99.90
52669;DHT22;59898;52.786;6.892;2022-09-02T05:38:31;13.80;99.90
52669;DHT22;59898;52.786;6.892;2022-09-02T05:41:51;13.90;99.90
52669;DHT22;59898;52.786;6.892;2022-09-02T05:45:12;13.90;99.90
52669;DHT22;59898;52.786;6.892;2022-09-02T05:48:34;14.00;99.90
52669;DHT22;59898;52.786;6.892;2022-09-02T05:52:14;14.00;99.90
52669;DHT22;59898;52.786;6.892;2022-09-02T05:55:35;14.10;99.90
52669;DHT22;59898;52.786;6.892;2022-09-02T05:58:56;14.10;99.90
52669;DHT22;59898;52.786;6.892;2022-09-02T06:02:19;14.20;99.90
52669;DHT22;59898;52.786;6.892;2022-09-02T06:05:40;14.20;99.90
52669;DHT22;59898;52.786;6.892;2022-09-02T06:09:01;14.30;99.90
52669;DHT22;59898;52.786;6.892;2022-09-02T06:12:24;14.40;99.90
52669;DHT22;59898;52.786;6.892;2022-09-02T06:15:45;14.50;99.90
52669;DHT22;59898;52.786;6.892;2022-09-02T06:19:06;14.60;99.90
52669;DHT22;59898;52.786;6.892;2022-09-02T06:22:27;14.70;99.90
52669;DHT22;59898;52.786;6.892;2022-09-02T06:25:48;14.80;99.90
52669;DHT22;59898;52.786;6.892;2022-09-02T06:29:10;14.90;99.90
52669;DHT22;59898;52.786;6.892;2022-09-02T06:32:31;15.10;99.90
52669;DHT22;59898;52.786;6.892;2022-09-02T06:35:52;15.20;99.90
52669;DHT22;59898;52.786;6.892;2022-09-02T06:39:17;15.30;99.90
52669;DHT22;59898;52.786;6.892;2022-09-02T06:42:38;15.50;99.90
52669;DHT22;59898;52.786;6.892;2022-09-02T06:45:59;15.70;99.80
52669;DHT22;59898;52.786;6.892;2022-09-02T06:49:19;15.70;99.70
52669;DHT22;59898;52.786;6.892;2022-09-02T06:52:40;15.90;99.50
52669;DHT22;59898;52.786;6.892;2022-09-02T06:56:01;16.10;99.40
52669;DHT22;59898;52.786;6.892;2022-09-02T06:59:26;16.30;99.10
52669;DHT22;59898;52.786;6.892;2022-09-02T07:02:46;16.30;98.80
52669;DHT22;59898;52.786;6.892;2022-09-02T07:06:27;16.50;98.70
52669;DHT22;59898;52.786;6.892;2022-09-02T07:09:48;16.60;98.40
52669;DHT22;59898;52.786;6.892;2022-09-02T07:13:08;16.70;98.40
52669;DHT22;59898;52.786;6.892;2022-09-02T07:16:36;16.90;98.10
52669;DHT22;59898;52.786;6.892;2022-09-02T07:19:57;17.10;97.80
52669;DHT22;59898;52.786;6.892;2022-09-02T07:23:19;17.20;97.70
52669;DHT22;59898;52.786;6.892;2022-09-02T07:26:41;17.40;97.40
52669;DHT22;59898;52.786;6.892;2022-09-02T07:30:03;17.60;97.00
52669;DHT22;59898;52.786;6.892;2022-09-02T07:33:24;17.70;96.70
52669;DHT22;59898;52.786;6.892;2022-09-02T07:36:45;17.80;96.60
52669;DHT22;59898;52.786;6.892;2022-09-02T07:40:08;18.00;96.50
52669;DHT22;59898;52.786;6.892;2022-09-02T07:43:30;18.20;96.30
52669;DHT22;59898;52.786;6.892;2022-09-02T07:46:52;18.30;95.80
52669;DHT22;59898;52.786;6.892;2022-09-02T07:50:14;18.40;95.90
52669;DHT22;59898;52.786;6.892;2022-09-02T07:53:36;18.70;95.60
52669;DHT22;59898;52.786;6.892;2022-09-02T07:56:57;18.90;95.40
52669;DHT22;59898;52.786;6.892;2022-09-02T08:00:18;19.10;95.20
52669;DHT22;59898;52.786;6.892;2022-09-02T08:03:40;19.20;94.70
52669;DHT22;59898;52.786;6.892;2022-09-02T08:07:01;19.40;94.70
52669;DHT22;59898;52.786;6.892;2022-09-02T08:10:22;19.60;94.60
52669;DHT22;59898;52.786;6.892;2022-09-02T08:13:45;19.70;93.90
52669;DHT22;59898;52.786;6.892;2022-09-02T08:17:05;19.80;93.80
52669;DHT22;59898;52.786;6.892;2022-09-02T08:20:27;19.90;93.40
52669;DHT22;59898;52.786;6.892;2022-09-02T08:23:50;20.00;93.40
52669;DHT22;59898;52.786;6.892;2022-09-02T08:27:11;20.00;93.40
52669;DHT22;59898;52.786;6.892;2022-09-02T08:30:31;20.30;93.30
52669;DHT22;59898;52.786;6.892;2022-09-02T08:33:52;20.60;93.20
52669;DHT22;59898;52.786;6.892;2022-09-02T08:37:13;20.80;92.70
52669;DHT22;59898;52.786;6.892;2022-09-02T08:40:39;20.90;92.60
52669;DHT22;59898;52.786;6.892;2022-09-02T08:44:01;21.10;91.90
52669;DHT22;59898;52.786;6.892;2022-09-02T08:47:27;21.20;92.10
52669;DHT22;59898;52.786;6.892;2022-09-02T08:50:51;21.30;91.70
52669;DHT22;59898;52.786;6.892;2022-09-02T08:54:33;21.40;91.50
52669;DHT22;59898;52.786;6.892;2022-09-02T08:57:56;21.40;90.90
52669;DHT22;59898;52.786;6.892;2022-09-02T09:08:37;21.90;90.60
52669;DHT22;59898;52.786;6.892;2022-09-02T09:19:20;22.20;88.70
52669;DHT22;59898;52.786;6.892;2022-09-02T09:22:45;22.40;88.70
52669;DHT22;59898;52.786;6.892;2022-09-02T09:26:08;22.60;88.50
52669;DHT22;59898;52.786;6.892;2022-09-02T09:29:32;22.60;86.60
52669;DHT22;59898;52.786;6.892;2022-09-02T09:32:59;22.80;87.30
52669;DHT22;59898;52.786;6.892;2022-09-02T09:43:40;23.20;84.70
52669;DHT22;59898;52.786;6.892;2022-09-02T09:47:04;23.30;84.80
52669;DHT22;59898;52.786;6.892;2022-09-02T09:50:25;23.40;84.40
52669;DHT22;59898;52.786;6.892;2022-09-02T09:53:46;23.60;83.90
52669;DHT22;59898;52.786;6.892;2022-09-02T09:57:15;23.70;83.50
52669;DHT22;59898;52.786;6.892;2022-09-02T10:00:37;23.80;81.60
52669;DHT22;59898;52.786;6.892;2022-09-02T10:07:38;23.80;81.10
52669;DHT22;59898;52.786;6.892;2022-09-02T10:11:00;23.90;79.10
52669;DHT22;59898;52.786;6.892;2022-09-02T10:14:21;24.00;80.00
52669;DHT22;59898;52.786;6.892;2022-09-02T10:17:54;24.10;79.40
52669;DHT22;59898;52.786;6.892;2022-09-02T10:21:28;24.20;78.30
52669;DHT22;59898;52.786;6.892;2022-09-02T10:39:52;24.80;76.70
52669;DHT22;59898;52.786;6.892;2022-09-02T10:50:54;24.90;75.00
52669;DHT22;59898;52.786;6.892;2022-09-02T10:54:45;24.90;74.40
52669;DHT22;59898;52.786;6.892;2022-09-02T10:58:20;25.10;73.60
52669;DHT22;59898;52.786;6.892;2022-09-02T11:01:47;25.10;74.30
52669;DHT22;59898;52.786;6.892;2022-09-02T11:05:49;25.30;74.20
52669;DHT22;59898;52.786;6.892;2022-09-02T11:09:14;25.40;73.30
52669;DHT22;59898;52.786;6.892;2022-09-02T11:12:46;25.40;72.70
52669;DHT22;59898;52.786;6.892;2022-09-02T11:16:27;25.30;72.10
52669;DHT22;59898;52.786;6.892;2022-09-02T11:23:58;25.30;72.30
52669;DHT22;59898;52.786;6.892;2022-09-02T11:27:43;25.30;73.20
52669;DHT22;59898;52.786;6.892;2022-09-02T11:35:09;25.40;72.80
52669;DHT22;59898;52.786;6.892;2022-09-02T11:38:38;25.70;73.10
52669;DHT22;59898;52.786;6.892;2022-09-02T11:49:53;25.90;72.20
52669;DHT22;59898;52.786;6.892;2022-09-02T11:53:30;26.10;70.60
52669;DHT22;59898;52.786;6.892;2022-09-02T11:56:57;26.10;70.40
52669;DHT22;59898;52.786;6.892;2022-09-02T12:04:36;26.20;70.30
52669;DHT22;59898;52.786;6.892;2022-09-02T12:08:02;26.20;70.60
52669;DHT22;59898;52.786;6.892;2022-09-02T12:15:01;26.30;70.20
52669;DHT22;59898;52.786;6.892;2022-09-02T12:18:26;26.30;70.20
52669;DHT22;59898;52.786;6.892;2022-09-02T12:22:30;26.40;70.10
52669;DHT22;59898;52.786;6.892;2022-09-02T12:25:56;26.40;68.80
52669;DHT22;59898;52.786;6.892;2022-09-02T12:36:43;26.50;69.20
52669;DHT22;59898;52.786;6.892;2022-09-02T12:40:13;26.50;68.80
52669;DHT22;59898;52.786;6.892;2022-09-02T12:44:00;26.50;69.00
52669;DHT22;59898;52.786;6.892;2022-09-02T12:51:56;26.80;67.70
52669;DHT22;59898;52.786;6.892;2022-09-02T12:55:21;26.80;67.70
52669;DHT22;59898;52.786;6.892;2022-09-02T12:58:53;26.60;67.80
52669;DHT22;59898;52.786;6.892;2022-09-02T13:24:23;26.50;66.50
52669;DHT22;59898;52.786;6.892;2022-09-02T13:35:29;27.10;66.30
52669;DHT22;59898;52.786;6.892;2022-09-02T13:38:51;27.00;66.70
52669;DHT22;59898;52.786;6.892;2022-09-02T13:42:16;27.00;66.90
52669;DHT22;59898;52.786;6.892;2022-09-02T13:45:39;27.00;66.20
52669;DHT22;59898;52.786;6.892;2022-09-02T13:49:00;26.90;66.40
52669;DHT22;59898;52.786;6.892;2022-09-02T13:52:22;26.80;65.90
52669;DHT22;59898;52.786;6.892;2022-09-02T13:55:52;26.60;66.00
52669;DHT22;59898;52.786;6.892;2022-09-02T13:59:13;26.50;65.80
52669;DHT22;59898;52.786;6.892;2022-09-02T14:03:01;26.60;66.00
52669;DHT22;59898;52.786;6.892;2022-09-02T14:06:23;26.90;64.50
52669;DHT22;59898;52.786;6.892;2022-09-02T14:09:44;27.10;64.80
52669;DHT22;59898;52.786;6.892;2022-09-02T14:13:06;27.20;65.60
52669;DHT22;59898;52.786;6.892;2022-09-02T14:16:35;27.10;65.40
52669;DHT22;59898;52.786;6.892;2022-09-02T14:23:38;27.10;64.80
52669;DHT22;59898;52.786;6.892;2022-09-02T14:27:16;27.20;65.40
52669;DHT22;59898;52.786;6.892;2022-09-02T14:30:39;27.20;64.60
52669;DHT22;59898;52.786;6.892;2022-09-02T14:34:00;27.00;65.10
52669;DHT22;59898;52.786;6.892;2022-09-02T14:37:26;26.80;65.30
52669;DHT22;59898;52.786;6.892;2022-09-02T14:41:02;26.80;65.50
52669;DHT22;59898;52.786;6.892;2022-09-02T14:44:31;26.90;65.30
52669;DHT22;59898;52.786;6.892;2022-09-02T14:47:55;27.00;65.60
52669;DHT22;59898;52.786;6.892;2022-09-02T14:51:17;27.00;65.60
52669;DHT22;59898;52.786;6.892;2022-09-02T14:54:43;27.00;65.30
52669;DHT22;59898;52.786;6.892;2022-09-02T14:58:04;27.00;65.20
52669;DHT22;59898;52.786;6.892;2022-09-02T15:01:25;26.80;65.00
52669;DHT22;59898;52.786;6.892;2022-09-02T15:04:45;26.60;65.20
52669;DHT22;59898;52.786;6.892;2022-09-02T15:08:06;26.50;65.50
52669;DHT22;59898;52.786;6.892;2022-09-02T15:11:28;26.40;65.00
52669;DHT22;59898;52.786;6.892;2022-09-02T15:14:52;26.30;64.90
52669;DHT22;59898;52.786;6.892;2022-09-02T15:18:13;26.40;65.10
52669;DHT22;59898;52.786;6.892;2022-09-02T15:21:34;26.40;64.70
52669;DHT22;59898;52.786;6.892;2022-09-02T15:24:54;26.40;64.80
52669;DHT22;59898;52.786;6.892;2022-09-02T15:28:17;26.60;65.10
52669;DHT22;59898;52.786;6.892;2022-09-02T15:31:37;26.70;65.00
52669;DHT22;59898;52.786;6.892;2022-09-02T15:34:58;26.80;64.90
52669;DHT22;59898;52.786;6.892;2022-09-02T15:38:19;26.70;64.80
52669;DHT22;59898;52.786;6.892;2022-09-02T15:41:42;26.70;64.80
52669;DHT22;59898;52.786;6.892;2022-09-02T15:45:04;26.60;65.30
52669;DHT22;59898;52.786;6.892;2022-09-02T15:48:25;26.60;65.70
52669;DHT22;59898;52.786;6.892;2022-09-02T15:51:47;26.50;65.40
52669;DHT22;59898;52.786;6.892;2022-09-02T15:55:11;26.30;65.70
52669;DHT22;59898;52.786;6.892;2022-09-02T15:58:31;26.10;66.10
52669;DHT22;59898;52.786;6.892;2022-09-02T16:01:54;26.00;66.00
52669;DHT22;59898;52.786;6.892;2022-09-02T16:05:15;25.80;65.90
52669;DHT22;59898;52.786;6.892;2022-09-02T16:08:36;25.70;65.90
52669;DHT22;59898;52.786;6.892;2022-09-02T16:11:56;25.70;66.00
52669;DHT22;59898;52.786;6.892;2022-09-02T16:15:17;25.70;66.10
52669;DHT22;59898;52.786;6.892;2022-09-02T16:18:40;25.60;65.80
52669;DHT22;59898;52.786;6.892;2022-09-02T16:22:01;25.60;66.10
52669;DHT22;59898;52.786;6.892;2022-09-02T16:25:22;25.60;66.70
52669;DHT22;59898;52.786;6.892;2022-09-02T16:28:44;25.40;67.00
52669;DHT22;59898;52.786;6.892;2022-09-02T16:32:05;25.50;67.50
52669;DHT22;59898;52.786;6.892;2022-09-02T16:35:25;25.60;67.40
52669;DHT22;59898;52.786;6.892;2022-09-02T16:38:46;25.60;67.50
52669;DHT22;59898;52.786;6.892;2022-09-02T16:42:07;25.50;67.60
52669;DHT22;59898;52.786;6.892;2022-09-02T16:45:27;25.50;67.90
52669;DHT22;59898;52.786;6.892;2022-09-02T16:48:48;25.50;67.90
52669;DHT22;59898;52.786;6.892;2022-09-02T16:52:09;25.40;68.00
52669;DHT22;59898;52.786;6.892;2022-09-02T16:55:30;25.40;67.80
52669;DHT22;59898;52.786;6.892;2022-09-02T16:58:51;25.30;67.60
52669;DHT22;59898;52.786;6.892;2022-09-02T17:02:12;25.20;67.70
52669;DHT22;59898;52.786;6.892;2022-09-02T17:05:33;25.10;67.90
52669;DHT22;59898;52.786;6.892;2022-09-02T17:08:54;25.10;68.10
52669;DHT22;59898;52.786;6.892;2022-09-02T17:12:15;25.00;68.30
52669;DHT22;59898;52.786;6.892;2022-09-02T17:15:35;24.90;68.50
52669;DHT22;59898;52.786;6.892;2022-09-02T17:18:57;24.90;68.70
52669;DHT22;59898;52.786;6.892;2022-09-02T17:22:18;24.80;68.90
52669;DHT22;59898;52.786;6.892;2022-09-02T17:25:44;24.70;69.10
52669;DHT22;59898;52.786;6.892;2022-09-02T17:29:13;24.70;69.50
52669;DHT22;59898;52.786;6.892;2022-09-02T17:32:40;24.70;69.90
52669;DHT22;59898;52.786;6.892;2022-09-02T17:36:01;24.50;69.90
52669;DHT22;59898;52.786;6.892;2022-09-02T17:39:21;24.40;70.00
52669;DHT22;59898;52.786;6.892;2022-09-02T17:42:42;24.30;70.20
52669;DHT22;59898;52.786;6.892;2022-09-02T17:46:07;24.20;70.50
52669;DHT22;59898;52.786;6.892;2022-09-02T17:49:28;24.10;70.60
52669;DHT22;59898;52.786;6.892;2022-09-02T17:52:49;24.00;70.50
52669;DHT22;59898;52.786;6.892;2022-09-02T18:00:17;23.90;70.60
52669;DHT22;59898;52.786;6.892;2022-09-02T18:10:54;23.60;70.90
52669;DHT22;59898;52.786;6.892;2022-09-02T18:14:41;23.50;71.10
52669;DHT22;59898;52.786;6.892;2022-09-02T18:18:05;23.40;71.30
52669;DHT22;59898;52.786;6.892;2022-09-02T18:21:52;23.30;71.40
52669;DHT22;59898;52.786;6.892;2022-09-02T18:29:16;23.10;71.80
52669;DHT22;59898;52.786;6.892;2022-09-02T18:36:32;22.90;71.90
52669;DHT22;59898;52.786;6.892;2022-09-02T18:47:16;22.70;72.10
52669;DHT22;59898;52.786;6.892;2022-09-02T18:50:43;22.70;72.30
52669;DHT22;59898;52.786;6.892;2022-09-02T18:54:17;22.60;72.20
52669;DHT22;59898;52.786;6.892;2022-09-02T18:57:50;22.60;72.50
52669;DHT22;59898;52.786;6.892;2022-09-02T19:01:19;22.50;72.40
52669;DHT22;59898;52.786;6.892;2022-09-02T19:04:42;22.50;72.50
52669;DHT22;59898;52.786;6.892;2022-09-02T19:08:16;22.40;72.60
52669;DHT22;59898;52.786;6.892;2022-09-02T19:11:49;22.40;72.70
52669;DHT22;59898;52.786;6.892;2022-09-02T19:15:13;22.30;72.80
52669;DHT22;59898;52.786;6.892;2022-09-02T19:18:34;22.30;72.90
52669;DHT22;59898;52.786;6.892;2022-09-02T19:21:58;22.20;72.90
52669;DHT22;59898;52.786;6.892;2022-09-02T19:25:24;22.20;73.10
52669;DHT22;59898;52.786;6.892;2022-09-02T19:28:46;22.10;73.20
52669;DHT22;59898;52.786;6.892;2022-09-02T19:32:09;22.10;73.20
52669;DHT22;59898;52.786;6.892;2022-09-02T19:35:31;22.00;73.30
52669;DHT22;59898;52.786;6.892;2022-09-02T19:38:54;22.00;73.30
52669;DHT22;59898;52.786;6.892;2022-09-02T19:42:16;21.90;73.30
52669;DHT22;59898;52.786;6.892;2022-09-02T19:45:40;21.90;73.50
52669;DHT22;59898;52.786;6.892;2022-09-02T19:49:01;21.90;73.60
52669;DHT22;59898;52.786;6.892;2022-09-02T19:52:21;21.80;73.70
52669;DHT22;59898;52.786;6.892;2022-09-02T19:55:42;21.80;73.80
52669;DHT22;59898;52.786;6.892;2022-09-02T19:59:03;21.80;73.90
52669;DHT22;59898;52.786;6.892;2022-09-02T20:02:25;21.70;74.00
52669;DHT22;59898;52.786;6.892;2022-09-02T20:05:48;21.60;74.10
52669;DHT22;59898;52.786;6.892;2022-09-02T20:09:09;21.60;74.20
52669;DHT22;59898;52.786;6.892;2022-09-02T20:12:31;21.50;74.40
52669;DHT22;59898;52.786;6.892;2022-09-02T20:15:53;21.40;74.50
52669;DHT22;59898;52.786;6.892;2022-09-02T20:19:14;21.30;74.80
52669;DHT22;59898;52.786;6.892;2022-09-02T20:22:36;21.30;74.70
52669;DHT22;59898;52.786;6.892;2022-09-02T20:29:30;21.10;75.00
52669;DHT22;59898;52.786;6.892;2022-09-02T20:33:10;21.00;75.20
52669;DHT22;59898;52.786;6.892;2022-09-02T20:36:57;20.90;75.40
52669;DHT22;59898;52.786;6.892;2022-09-02T20:40:50;20.80;75.60
52669;DHT22;59898;52.786;6.892;2022-09-02T20:44:33;20.70;76.10
52669;DHT22;59898;52.786;6.892;2022-09-02T20:55:17;20.50;76.20
52669;DHT22;59898;52.786;6.892;2022-09-02T20:59:00;20.40;76.40
52669;DHT22;59898;52.786;6.892;2022-09-02T21:02:34;20.30;76.70
52669;DHT22;59898;52.786;6.892;2022-09-02T21:05:57;20.20;76.70
52669;DHT22;59898;52.786;6.892;2022-09-02T21:09:47;20.10;77.00
52669;DHT22;59898;52.786;6.892;2022-09-02T21:13:20;20.10;77.00
52669;DHT22;59898;52.786;6.892;2022-09-02T21:16:50;20.00;77.40
52669;DHT22;59898;52.786;6.892;2022-09-02T21:20:20;19.90;77.50
52669;DHT22;59898;52.786;6.892;2022-09-02T21:24:04;19.90;77.60
52669;DHT22;59898;52.786;6.892;2022-09-02T21:31:07;19.70;77.90
52669;DHT22;59898;52.786;6.892;2022-09-02T21:45:52;19.50;78.70
52669;DHT22;59898;52.786;6.892;2022-09-02T21:49:40;19.40;78.60
52669;DHT22;59898;52.786;6.892;2022-09-02T22:03:31;19.10;79.20
52669;DHT22;59898;52.786;6.892;2022-09-02T22:07:04;19.00;79.30
52669;DHT22;59898;52.786;6.892;2022-09-02T22:10:36;19.00;79.40
52669;DHT22;59898;52.786;6.892;2022-09-02T22:14:13;18.90;79.20
52669;DHT22;59898;52.786;6.892;2022-09-02T22:17:49;18.90;79.50
52669;DHT22;59898;52.786;6.892;2022-09-02T22:21:34;18.90;79.60
52669;DHT22;59898;52.786;6.892;2022-09-02T22:25:07;18.80;79.50
52669;DHT22;59898;52.786;6.892;2022-09-02T22:28:44;18.70;79.60
52669;DHT22;59898;52.786;6.892;2022-09-02T22:32:08;18.70;79.70
52669;DHT22;59898;52.786;6.892;2022-09-02T22:38:56;18.60;79.80
52669;DHT22;59898;52.786;6.892;2022-09-02T22:46:03;18.50;80.00
52669;DHT22;59898;52.786;6.892;2022-09-02T22:49:50;18.50;80.20
52669;DHT22;59898;52.786;6.892;2022-09-02T22:53:30;18.40;80.20
52669;DHT22;59898;52.786;6.892;2022-09-02T22:57:07;18.30;80.20
52669;DHT22;59898;52.786;6.892;2022-09-02T23:00:46;18.30;80.30
52669;DHT22;59898;52.786;6.892;2022-09-02T23:04:33;18.30;80.50
52669;DHT22;59898;52.786;6.892;2022-09-02T23:07:59;18.20;80.60
52669;DHT22;59898;52.786;6.892;2022-09-02T23:11:50;18.20;80.30
52669;DHT22;59898;52.786;6.892;2022-09-02T23:29:27;18.00;80.70
52669;DHT22;59898;52.786;6.892;2022-09-02T23:33:01;17.90;80.60
52669;DHT22;59898;52.786;6.892;2022-09-02T23:40:30;17.90;81.00
52669;DHT22;59898;52.786;6.892;2022-09-02T23:43:53;17.80;80.80
52669;DHT22;59898;52.786;6.892;2022-09-02T23:50:51;17.80;80.90
